Metar z połowy godziny Komunikat METAR ze strony awiacja.imgw.pl Metar G30 EPSN METAR EPSN 221430Z 23008KT 9999 SCT025 BKN040 15/09 Q1015 RMK 146 070 7/4=